Aérodrome :
LOGIN :

S'inscrire | Disclaimer

   EN    FR    IT 

 










Légende :    VFR   VFR Marginal   IFR   IFR Intensif   IFR Très Intensif
Visi : 
Plafond : 
>= 8 km
>= 3000ft
5 à 8 km
1000 à 3000 ft
1500m à 5 km
500 à 1000 ft
800 à 1500m
200 à 500 ft
< 800m
< 200 ft
Symboles :   Orages  Brouillard  Fortes neiges  Fortes précipitations  Vent > 20 kt
SIGMETs :   Divers  Orages  Givrage  Turbulence  Onde Orograph.  Cendres Volcan.






- Altitude de l'aérodrome : 36 ft
- Code IATA : LTQ


LFAT - Le Touquet

DERNIER METAR :
  • 141430Z AUTO 26008KT 230V290 CAVOK 13/07 Q1023 NOSIG

METARs EXPIRÉS :
  • 141400Z AUTO 27009KT 220V310 CAVOK 13/07 Q1023 NOSIG
  • 141330Z AUTO 26009KT CAVOK 14/07 Q1023 NOSIG
  • 141300Z AUTO 29007KT 230V320 CAVOK 14/05 Q1023 NOSIG
  • 141230Z AUTO 28006KT 240V300 CAVOK 14/06 Q1024 NOSIG
  • 141200Z AUTO 30005KT 250V360 CAVOK 14/06 Q1024 NOSIG
  • 141130Z AUTO 31006KT 260V360 9999 FEW033 14/08 Q1024 NOSIG
  • 141100Z AUTO 30004KT 250V350 CAVOK 13/08 Q1024 NOSIG
  • 141030Z AUTO 31006KT 270V350 9999 FEW017 13/09 Q1025 NOSIG
  • 141000Z AUTO 32006KT 290V360 9999 FEW020 SCT240 13/09 Q1025 NOSIG

TAF TAF LFAT
Valide du 14 à 12h jusqu'au 14 à 21h UTC


141100Z 1412/1421 27010KT CAVOK
ATIS : +33 3 21 06 62 84



MET'MAP, la Météo Aéronautique d'un coup d'oeil ! - Copyright ORBIFLY Décembre 2007 - Disclaimer

ORBIFLY MET'MAP TEAM :

Programmation & Développement : Alexandra Zaïnal
Sur une idée originale de : Baudouin d'Aumeries
Soutien technique & logistique : Manuel Goepfert
Assistance : Marc-Olivier Méhu




SOURCES & CREDITS :

   NOAA